sensor_id;sensor_type;location;lat;lon;timestamp;pressure;altitude;pressure_sealevel;temperature;humidity
75420;BME280;63998;52.488;13.428;2023-05-14T00:00:59;101550.44;;;16.95;47.39
75420;BME280;63998;52.488;13.428;2023-05-14T00:03:25;101557.50;;;16.93;47.94
75420;BME280;63998;52.488;13.428;2023-05-14T00:05:50;101554.03;;;16.88;47.46
75420;BME280;63998;52.488;13.428;2023-05-14T00:08:16;101547.91;;;16.87;47.93
75420;BME280;63998;52.488;13.428;2023-05-14T00:10:41;101547.06;;;16.84;47.53
75420;BME280;63998;52.488;13.428;2023-05-14T00:13:06;101548.81;;;16.85;47.64
75420;BME280;63998;52.488;13.428;2023-05-14T00:15:32;101546.22;;;16.82;47.36
75420;BME280;63998;52.488;13.428;2023-05-14T00:17:57;101548.84;;;16.82;47.57
75420;BME280;63998;52.488;13.428;2023-05-14T00:20:22;101547.13;;;16.81;47.72
75420;BME280;63998;52.488;13.428;2023-05-14T00:22:48;101539.28;;;16.79;47.60
75420;BME280;63998;52.488;13.428;2023-05-14T00:25:13;101542.78;;;16.78;47.74
75420;BME280;63998;52.488;13.428;2023-05-14T00:27:38;101541.94;;;16.75;47.81
75420;BME280;63998;52.488;13.428;2023-05-14T00:30:04;101541.06;;;16.74;47.55
75420;BME280;63998;52.488;13.428;2023-05-14T00:32:31;101532.31;;;16.75;47.33
75420;BME280;63998;52.488;13.428;2023-05-14T00:34:56;101528.81;;;16.76;47.46
75420;BME280;63998;52.488;13.428;2023-05-14T00:37:22;101528.81;;;16.76;47.54
75420;BME280;63998;52.488;13.428;2023-05-14T00:39:47;101534.06;;;16.76;47.42
75420;BME280;63998;52.488;13.428;2023-05-14T00:42:12;101526.16;;;16.78;47.33
75420;BME280;63998;52.488;13.428;2023-05-14T00:44:37;101530.53;;;16.80;47.31
75420;BME280;63998;52.488;13.428;2023-05-14T00:47:03;101522.69;;;16.76;47.58
75420;BME280;63998;52.488;13.428;2023-05-14T00:49:29;101523.59;;;16.73;47.66
75420;BME280;63998;52.488;13.428;2023-05-14T00:51:54;101518.34;;;16.73;47.62
75420;BME280;63998;52.488;13.428;2023-05-14T00:54:23;101522.69;;;16.74;47.30
75420;BME280;63998;52.488;13.428;2023-05-14T00:56:49;101523.56;;;16.76;47.43
75420;BME280;63998;52.488;13.428;2023-05-14T00:59:15;101521.84;;;16.72;47.34
75420;BME280;63998;52.488;13.428;2023-05-14T01:01:41;101519.22;;;16.71;47.26
75420;BME280;63998;52.488;13.428;2023-05-14T01:04:07;101514.06;;;16.66;47.50
75420;BME280;63998;52.488;13.428;2023-05-14T01:06:44;101520.16;;;16.68;47.52
75420;BME280;63998;52.488;13.428;2023-05-14T01:11:59;101510.59;;;16.58;47.15
75420;BME280;63998;52.488;13.428;2023-05-14T01:14:41;101514.09;;;16.57;47.22
75420;BME280;63998;52.488;13.428;2023-05-14T01:17:10;101516.78;;;16.54;47.40
75420;BME280;63998;52.488;13.428;2023-05-14T01:19:42;101520.31;;;16.50;47.26
75420;BME280;63998;52.488;13.428;2023-05-14T01:22:08;101511.56;;;16.48;47.67
75420;BME280;63998;52.488;13.428;2023-05-14T01:24:34;101513.41;;;16.40;47.22
75420;BME280;63998;52.488;13.428;2023-05-14T01:27:11;101515.16;;;16.38;47.71
75420;BME280;63998;52.488;13.428;2023-05-14T01:29:42;101507.38;;;16.32;47.66
75420;BME280;63998;52.488;13.428;2023-05-14T01:32:08;101520.50;;;16.29;48.18
75420;BME280;63998;52.488;13.428;2023-05-14T01:34:35;101517.91;;;16.24;47.93
75420;BME280;63998;52.488;13.428;2023-05-14T01:37:03;101508.31;;;16.23;47.94
75420;BME280;63998;52.488;13.428;2023-05-14T01:39:29;101510.94;;;16.20;47.77
75420;BME280;63998;52.488;13.428;2023-05-14T01:41:56;101506.63;;;16.17;48.47
75420;BME280;63998;52.488;13.428;2023-05-14T01:44:23;101503.16;;;16.15;48.26
75420;BME280;63998;52.488;13.428;2023-05-14T01:46:49;101501.38;;;16.17;48.92
75420;BME280;63998;52.488;13.428;2023-05-14T01:49:14;101504.84;;;16.20;48.52
75420;BME280;63998;52.488;13.428;2023-05-14T01:51:42;101500.53;;;16.15;47.74
75420;BME280;63998;52.488;13.428;2023-05-14T01:54:07;101497.88;;;16.19;47.98
75420;BME280;63998;52.488;13.428;2023-05-14T01:56:32;101500.50;;;16.19;47.91
75420;BME280;63998;52.488;13.428;2023-05-14T01:58:58;101503.94;;;16.22;48.01
75420;BME280;63998;52.488;13.428;2023-05-14T02:01:23;101503.06;;;16.22;47.97
75420;BME280;63998;52.488;13.428;2023-05-14T02:03:50;101499.56;;;16.23;47.44
75420;BME280;63998;52.488;13.428;2023-05-14T02:06:15;101492.59;;;16.23;47.21
75420;BME280;63998;52.488;13.428;2023-05-14T02:08:40;101507.44;;;16.21;47.19
75420;BME280;63998;52.488;13.428;2023-05-14T02:11:06;101495.28;;;16.15;46.73
75420;BME280;63998;52.488;13.428;2023-05-14T02:13:31;101497.06;;;16.12;47.04
75420;BME280;63998;52.488;13.428;2023-05-14T02:15:56;101496.19;;;16.11;46.76
75420;BME280;63998;52.488;13.428;2023-05-14T02:18:21;101497.94;;;16.09;46.56
75420;BME280;63998;52.488;13.428;2023-05-14T02:20:47;101498.00;;;16.06;47.00
75420;BME280;63998;52.488;13.428;2023-05-14T02:23:12;101487.44;;;16.12;46.96
75420;BME280;63998;52.488;13.428;2023-05-14T02:25:37;101496.16;;;16.17;47.03
75420;BME280;63998;52.488;13.428;2023-05-14T02:28:03;101492.66;;;16.19;46.92
75420;BME280;63998;52.488;13.428;2023-05-14T02:30:28;101485.56;;;16.27;47.33
75420;BME280;63998;52.488;13.428;2023-05-14T02:32:55;101487.34;;;16.25;47.49
75420;BME280;63998;52.488;13.428;2023-05-14T02:35:20;101485.56;;;16.27;47.30
75420;BME280;63998;52.488;13.428;2023-05-14T02:37:46;101490.78;;;16.30;46.76
75420;BME280;63998;52.488;13.428;2023-05-14T02:40:11;101473.28;;;16.32;46.68
75420;BME280;63998;52.488;13.428;2023-05-14T02:42:36;101484.59;;;16.35;46.93
75420;BME280;63998;52.488;13.428;2023-05-14T02:45:02;101483.72;;;16.35;46.43
75420;BME280;63998;52.488;13.428;2023-05-14T02:47:27;101481.94;;;16.40;46.29
75420;BME280;63998;52.488;13.428;2023-05-14T02:49:53;101489.94;;;16.28;46.27
75420;BME280;63998;52.488;13.428;2023-05-14T02:52:18;101488.22;;;16.24;46.14
75420;BME280;63998;52.488;13.428;2023-05-14T02:54:43;101479.47;;;16.23;46.42
75420;BME280;63998;52.488;13.428;2023-05-14T02:57:09;101482.09;;;16.25;46.27
75420;BME280;63998;52.488;13.428;2023-05-14T02:59:34;101481.22;;;16.24;46.28
75420;BME280;63998;52.488;13.428;2023-05-14T03:02:00;101481.25;;;16.21;45.96
75420;BME280;63998;52.488;13.428;2023-05-14T03:04:25;101476.06;;;16.15;46.20
75420;BME280;63998;52.488;13.428;2023-05-14T03:06:50;101483.97;;;16.10;45.87
75420;BME280;63998;52.488;13.428;2023-05-14T03:09:16;101492.75;;;16.06;46.06
75420;BME280;63998;52.488;13.428;2023-05-14T03:11:41;101494.47;;;16.07;46.63
75420;BME280;63998;52.488;13.428;2023-05-14T03:14:06;101494.47;;;16.07;46.32
75420;BME280;63998;52.488;13.428;2023-05-14T03:16:32;101497.19;;;15.97;45.97
75420;BME280;63998;52.488;13.428;2023-05-14T03:18:57;101491.06;;;15.96;46.65
75420;BME280;63998;52.488;13.428;2023-05-14T03:21:22;101486.66;;;16.01;47.03
75420;BME280;63998;52.488;13.428;2023-05-14T03:23:48;101487.53;;;16.03;46.80
75420;BME280;63998;52.488;13.428;2023-05-14T03:26:14;101487.50;;;16.06;46.64
75420;BME280;63998;52.488;13.428;2023-05-14T03:28:39;101486.66;;;16.04;46.73
75420;BME280;63998;52.488;13.428;2023-05-14T03:31:04;101491.13;;;15.93;46.06
75420;BME280;63998;52.488;13.428;2023-05-14T03:33:30;101489.38;;;15.89;46.47
75420;BME280;63998;52.488;13.428;2023-05-14T03:35:55;101484.09;;;15.95;46.78
75420;BME280;63998;52.488;13.428;2023-05-14T03:38:21;101480.56;;;15.99;46.73
75420;BME280;63998;52.488;13.428;2023-05-14T03:40:46;101487.50;;;16.06;46.68
75420;BME280;63998;52.488;13.428;2023-05-14T03:43:11;101478.75;;;16.07;46.40
75420;BME280;63998;52.488;13.428;2023-05-14T03:45:37;101482.22;;;16.09;46.25
75420;BME280;63998;52.488;13.428;2023-05-14T03:48:03;101483.09;;;16.10;46.04
75420;BME280;63998;52.488;13.428;2023-05-14T03:50:28;101482.28;;;16.06;45.70
75420;BME280;63998;52.488;13.428;2023-05-14T03:52:54;101480.59;;;15.96;46.17
75420;BME280;63998;52.488;13.428;2023-05-14T03:55:19;101482.44;;;15.85;45.81
75420;BME280;63998;52.488;13.428;2023-05-14T03:57:46;101477.25;;;15.76;46.30
75420;BME280;63998;52.488;13.428;2023-05-14T04:00:12;101476.41;;;15.71;46.55
75420;BME280;63998;52.488;13.428;2023-05-14T04:02:37;101476.41;;;15.75;47.12
75420;BME280;63998;52.488;13.428;2023-05-14T04:05:02;101476.47;;;15.68;46.64
75420;BME280;63998;52.488;13.428;2023-05-14T04:07:28;101474.66;;;15.76;46.66
75420;BME280;63998;52.488;13.428;2023-05-14T04:09:53;101469.38;;;15.80;47.08
75420;BME280;63998;52.488;13.428;2023-05-14T04:12:19;101474.63;;;15.77;46.77
75420;BME280;63998;52.488;13.428;2023-05-14T04:14:44;101479.91;;;15.74;47.41
75420;BME280;63998;52.488;13.428;2023-05-14T04:17:09;101468.56;;;15.72;46.91
75420;BME280;63998;52.488;13.428;2023-05-14T04:19:35;101468.53;;;15.77;47.05
75420;BME280;63998;52.488;13.428;2023-05-14T04:22:00;101467.66;;;15.76;47.20
75420;BME280;63998;52.488;13.428;2023-05-14T04:24:25;101468.53;;;15.74;46.82
75420;BME280;63998;52.488;13.428;2023-05-14T04:26:51;101463.31;;;15.71;47.29
75420;BME280;63998;52.488;13.428;2023-05-14T04:29:16;101463.38;;;15.65;46.63
75420;BME280;63998;52.488;13.428;2023-05-14T04:31:41;101468.59;;;15.68;47.11
75420;BME280;63998;52.488;13.428;2023-05-14T04:34:07;101468.63;;;15.62;46.75
75420;BME280;63998;52.488;13.428;2023-05-14T04:36:32;101475.69;;;15.48;46.54
75420;BME280;63998;52.488;13.428;2023-05-14T04:38:58;101467.00;;;15.39;46.86
75420;BME280;63998;52.488;13.428;2023-05-14T04:41:23;101463.53;;;15.34;47.04
75420;BME280;63998;52.488;13.428;2023-05-14T04:43:49;101467.03;;;15.36;47.07
75420;BME280;63998;52.488;13.428;2023-05-14T04:46:14;101462.63;;;15.44;47.48
75420;BME280;63998;52.488;13.428;2023-05-14T04:48:40;101456.47;;;15.52;47.37
75420;BME280;63998;52.488;13.428;2023-05-14T04:51:06;101458.16;;;15.59;47.60
75420;BME280;63998;52.488;13.428;2023-05-14T04:53:31;101457.28;;;15.63;46.99
75420;BME280;63998;52.488;13.428;2023-05-14T04:55:56;101451.16;;;15.64;46.98
75420;BME280;63998;52.488;13.428;2023-05-14T04:58:22;101456.41;;;15.61;46.95
75420;BME280;63998;52.488;13.428;2023-05-14T05:00:48;101459.91;;;15.63;46.82
75420;BME280;63998;52.488;13.428;2023-05-14T05:03:14;101464.25;;;15.65;46.82
75420;BME280;63998;52.488;13.428;2023-05-14T05:05:39;101455.59;;;15.57;46.10
75420;BME280;63998;52.488;13.428;2023-05-14T05:08:04;101454.72;;;15.57;46.37
75420;BME280;63998;52.488;13.428;2023-05-14T05:10:30;101462.56;;;15.51;46.20
75420;BME280;63998;52.488;13.428;2023-05-14T05:12:55;101454.72;;;15.48;46.36
75420;BME280;63998;52.488;13.428;2023-05-14T05:15:20;101458.22;;;15.50;46.61
75420;BME280;63998;52.488;13.428;2023-05-14T05:17:46;101455.59;;;15.46;46.60
75420;BME280;63998;52.488;13.428;2023-05-14T05:20:11;101456.53;;;15.42;46.62
75420;BME280;63998;52.488;13.428;2023-05-14T05:22:37;101455.59;;;15.50;46.92
75420;BME280;63998;52.488;13.428;2023-05-14T05:25:02;101455.59;;;15.48;47.28
75420;BME280;63998;52.488;13.428;2023-05-14T05:27:32;101456.47;;;15.52;46.88
75420;BME280;63998;52.488;13.428;2023-05-14T05:29:57;101448.59;;;15.58;46.99
75420;BME280;63998;52.488;13.428;2023-05-14T05:32:23;101452.97;;;15.56;46.82
75420;BME280;63998;52.488;13.428;2023-05-14T05:34:49;101444.22;;;15.54;46.91
75420;BME280;63998;52.488;13.428;2023-05-14T05:37:16;101447.75;;;15.56;47.37
75420;BME280;63998;52.488;13.428;2023-05-14T05:39:41;101445.06;;;15.62;47.30
75420;BME280;63998;52.488;13.428;2023-05-14T05:42:06;101443.28;;;15.70;47.01
75420;BME280;63998;52.488;13.428;2023-05-14T05:44:32;101444.06;;;15.78;46.80
75420;BME280;63998;52.488;13.428;2023-05-14T05:46:57;101448.44;;;15.76;46.88
75420;BME280;63998;52.488;13.428;2023-05-14T05:49:22;101447.69;;;15.59;46.88
75420;BME280;63998;52.488;13.428;2023-05-14T05:51:48;101445.94;;;15.64;47.17
75420;BME280;63998;52.488;13.428;2023-05-14T05:54:13;101439.81;;;15.66;47.32
75420;BME280;63998;52.488;13.428;2023-05-14T05:56:38;101444.97;;;15.71;46.78
75420;BME280;63998;52.488;13.428;2023-05-14T05:59:04;101448.44;;;15.79;47.19
75420;BME280;63998;52.488;13.428;2023-05-14T06:01:29;101452.72;;;15.89;46.89
75420;BME280;63998;52.488;13.428;2023-05-14T06:03:55;101441.28;;;15.98;46.59
75420;BME280;63998;52.488;13.428;2023-05-14T06:06:21;101448.16;;;16.09;46.82
75420;BME280;63998;52.488;13.428;2023-05-14T06:08:46;101441.13;;;16.16;46.35
75420;BME280;63998;52.488;13.428;2023-05-14T06:11:11;101443.66;;;16.21;46.04
75420;BME280;63998;52.488;13.428;2023-05-14T06:13:36;101446.22;;;16.30;46.06
75420;BME280;63998;52.488;13.428;2023-05-14T06:16:02;101446.16;;;16.34;45.51
75420;BME280;63998;52.488;13.428;2023-05-14T06:18:27;101436.59;;;16.30;45.10
75420;BME280;63998;52.488;13.428;2023-05-14T06:20:53;101445.38;;;16.25;45.20
75420;BME280;63998;52.488;13.428;2023-05-14T06:23:20;101435.75;;;16.27;45.45
75420;BME280;63998;52.488;13.428;2023-05-14T06:25:46;101440.22;;;16.19;45.18
75420;BME280;63998;52.488;13.428;2023-05-14T06:28:11;101438.41;;;16.22;45.47
75420;BME280;63998;52.488;13.428;2023-05-14T06:30:36;101435.69;;;16.33;45.47
75420;BME280;63998;52.488;13.428;2023-05-14T06:33:02;101444.28;;;16.45;45.52
75420;BME280;63998;52.488;13.428;2023-05-14T06:35:27;101438.13;;;16.51;45.18
75420;BME280;63998;52.488;13.428;2023-05-14T06:37:52;101436.31;;;16.56;45.04
75420;BME280;63998;52.488;13.428;2023-05-14T06:40:18;101445.72;;;16.77;45.27
75420;BME280;63998;52.488;13.428;2023-05-14T06:42:43;101432.56;;;16.78;44.72
75420;BME280;63998;52.488;13.428;2023-05-14T06:45:09;101441.34;;;16.77;44.47
75420;BME280;63998;52.488;13.428;2023-05-14T06:47:34;101435.94;;;16.90;44.21
75420;BME280;63998;52.488;13.428;2023-05-14T06:50:00;101437.50;;;17.03;44.08
75420;BME280;63998;52.488;13.428;2023-05-14T06:52:26;101439.97;;;17.13;44.08
75420;BME280;63998;52.488;13.428;2023-05-14T06:54:51;101438.94;;;17.25;43.85
75420;BME280;63998;52.488;13.428;2023-05-14T06:57:16;101435.28;;;17.35;43.50
75420;BME280;63998;52.488;13.428;2023-05-14T06:59:42;101437.78;;;17.44;43.52
75420;BME280;63998;52.488;13.428;2023-05-14T07:02:07;101438.53;;;17.52;43.40
75420;BME280;63998;52.488;13.428;2023-05-14T07:04:32;101437.84;;;17.41;42.78
75420;BME280;63998;52.488;13.428;2023-05-14T07:06:58;101441.16;;;17.54;43.25
75420;BME280;63998;52.488;13.428;2023-05-14T07:09:23;101436.66;;;17.60;42.79
75420;BME280;63998;52.488;13.428;2023-05-14T07:11:48;101433.25;;;17.55;42.51
75420;BME280;63998;52.488;13.428;2023-05-14T07:14:14;101435.75;;;17.62;43.13
75420;BME280;63998;52.488;13.428;2023-05-14T07:16:40;101438.25;;;17.71;42.93
75420;BME280;63998;52.488;13.428;2023-05-14T07:19:06;101432.09;;;17.73;42.14
75420;BME280;63998;52.488;13.428;2023-05-14T07:21:31;101432.75;;;17.86;42.58
75420;BME280;63998;52.488;13.428;2023-05-14T07:23:56;101418.69;;;17.90;42.55
75420;BME280;63998;52.488;13.428;2023-05-14T07:26:22;101421.22;;;17.93;41.85
75420;BME280;63998;52.488;13.428;2023-05-14T07:28:48;101423.56;;;18.11;42.21
75420;BME280;63998;52.488;13.428;2023-05-14T07:31:14;101424.94;;;18.30;42.39
75420;BME280;63998;52.488;13.428;2023-05-14T07:33:39;101413.31;;;18.42;41.96
75420;BME280;63998;52.488;13.428;2023-05-14T07:36:05;101407.75;;;18.59;41.37
75420;BME280;63998;52.488;13.428;2023-05-14T07:38:30;101410.06;;;18.74;41.19
75420;BME280;63998;52.488;13.428;2023-05-14T07:40:56;101414.22;;;18.84;40.75
75420;BME280;63998;52.488;13.428;2023-05-14T07:43:22;101407.69;;;19.04;40.28
75420;BME280;63998;52.488;13.428;2023-05-14T07:45:47;101402.16;;;19.16;40.18
75420;BME280;63998;52.488;13.428;2023-05-14T07:48:13;101396.53;;;19.29;40.21
75420;BME280;63998;52.488;13.428;2023-05-14T07:50:38;101392.97;;;19.32;39.39
75420;BME280;63998;52.488;13.428;2023-05-14T07:53:03;101395.50;;;19.36;39.09
75420;BME280;63998;52.488;13.428;2023-05-14T07:55:29;101392.66;;;19.44;38.49
75420;BME280;63998;52.488;13.428;2023-05-14T07:57:54;101395.19;;;19.50;38.10
75420;BME280;63998;52.488;13.428;2023-05-14T08:00:20;101390.38;;;19.67;37.82
75420;BME280;63998;52.488;13.428;2023-05-14T08:02:45;101384.44;;;19.59;36.68
75420;BME280;63998;52.488;13.428;2023-05-14T08:05:11;101374.81;;;19.57;36.28
75420;BME280;63998;52.488;13.428;2023-05-14T08:07:36;101377.94;;;19.72;37.35
75420;BME280;63998;52.488;13.428;2023-05-14T08:10:02;101376.13;;;19.75;36.34
75420;BME280;63998;52.488;13.428;2023-05-14T08:12:27;101372.72;;;19.71;36.12
75420;BME280;63998;52.488;13.428;2023-05-14T08:14:54;101377.78;;;19.79;36.16
75420;BME280;63998;52.488;13.428;2023-05-14T08:17:20;101378.22;;;19.96;35.82
75420;BME280;63998;52.488;13.428;2023-05-14T08:19:46;101378.09;;;20.00;35.52
75420;BME280;63998;52.488;13.428;2023-05-14T08:22:11;101375.31;;;20.05;35.01
75420;BME280;63998;52.488;13.428;2023-05-14T08:24:37;101371.78;;;20.06;34.54
75420;BME280;63998;52.488;13.428;2023-05-14T08:27:03;101370.75;;;20.12;34.17
75420;BME280;63998;52.488;13.428;2023-05-14T08:29:28;101373.00;;;20.25;35.07
75420;BME280;63998;52.488;13.428;2023-05-14T08:31:54;101366.66;;;20.32;34.95
75420;BME280;63998;52.488;13.428;2023-05-14T08:34:19;101372.00;;;20.29;33.94
75420;BME280;63998;52.488;13.428;2023-05-14T08:36:45;101370.69;;;20.46;34.86
75420;BME280;63998;52.488;13.428;2023-05-14T08:39:10;101366.50;;;20.68;34.95
75420;BME280;63998;52.488;13.428;2023-05-14T08:41:35;101371.25;;;20.86;34.32
75420;BME280;63998;52.488;13.428;2023-05-14T08:44:17;101360.59;;;20.89;33.25
75420;BME280;63998;52.488;13.428;2023-05-14T08:46:43;101356.94;;;20.93;33.31
75420;BME280;63998;52.488;13.428;2023-05-14T08:51:56;101348.09;;;20.94;33.03
75420;BME280;63998;52.488;13.428;2023-05-14T08:54:22;101343.03;;;20.88;33.15
75420;BME280;63998;52.488;13.428;2023-05-14T08:56:50;101347.72;;;21.06;33.70
75420;BME280;63998;52.488;13.428;2023-05-14T08:59:16;101348.09;;;21.24;33.38
75420;BME280;63998;52.488;13.428;2023-05-14T09:01:47;101343.22;;;21.38;33.11
75420;BME280;63998;52.488;13.428;2023-05-14T09:04:18;101341.78;;;21.54;32.46
75420;BME280;63998;52.488;13.428;2023-05-14T09:06:45;101328.88;;;21.45;31.63
75420;BME280;63998;52.488;13.428;2023-05-14T09:09:12;101332.94;;;21.55;31.81
75420;BME280;63998;52.488;13.428;2023-05-14T09:11:44;101324.56;;;21.67;31.90
75420;BME280;63998;52.488;13.428;2023-05-14T09:14:10;101323.66;;;21.68;31.43
75420;BME280;63998;52.488;13.428;2023-05-14T09:16:35;101323.94;;;21.85;31.68
75420;BME280;63998;52.488;13.428;2023-05-14T09:19:03;101319.63;;;22.08;31.90
75420;BME280;63998;52.488;13.428;2023-05-14T09:21:28;101305.16;;;22.18;30.99
75420;BME280;63998;52.488;13.428;2023-05-14T09:23:55;101310.34;;;22.21;30.64
75420;BME280;63998;52.488;13.428;2023-05-14T09:26:23;101308.59;;;22.20;30.40
75420;BME280;63998;52.488;13.428;2023-05-14T09:28:52;101300.16;;;22.10;31.56
75420;BME280;63998;52.488;13.428;2023-05-14T09:31:18;101291.44;;;22.07;31.29
75420;BME280;63998;52.488;13.428;2023-05-14T09:33:49;101289.78;;;22.28;31.50
75420;BME280;63998;52.488;13.428;2023-05-14T09:36:15;101288.38;;;22.41;31.00
75420;BME280;63998;52.488;13.428;2023-05-14T09:38:41;101274.28;;;22.40;30.55
75420;BME280;63998;52.488;13.428;2023-05-14T09:41:06;101277.84;;;22.39;30.26
75420;BME280;63998;52.488;13.428;2023-05-14T09:43:32;101272.34;;;22.45;30.98
75420;BME280;63998;52.488;13.428;2023-05-14T09:45:57;101270.13;;;22.56;30.84
75420;BME280;63998;52.488;13.428;2023-05-14T09:48:22;101266.94;;;22.70;30.54
75420;BME280;63998;52.488;13.428;2023-05-14T09:50:48;101255.59;;;22.67;30.19
75420;BME280;63998;52.488;13.428;2023-05-14T09:53:13;101254.34;;;22.75;30.79
75420;BME280;63998;52.488;13.428;2023-05-14T09:55:39;101258.38;;;22.87;30.22
75420;BME280;63998;52.488;13.428;2023-05-14T09:58:05;101254.63;;;22.91;30.04
75420;BME280;63998;52.488;13.428;2023-05-14T10:00:34;101238.88;;;22.88;29.68
75420;BME280;63998;52.488;13.428;2023-05-14T10:03:04;101245.53;;;22.76;29.38
75420;BME280;63998;52.488;13.428;2023-05-14T10:05:34;101248.13;;;22.78;30.25
75420;BME280;63998;52.488;13.428;2023-05-14T10:08:00;101246.28;;;22.80;29.85
75420;BME280;63998;52.488;13.428;2023-05-14T10:10:27;101243.06;;;22.50;29.29
75420;BME280;63998;52.488;13.428;2023-05-14T10:12:59;101237.88;;;22.47;30.11
75420;BME280;63998;52.488;13.428;2023-05-14T10:15:39;101242.28;;;22.46;30.00
75420;BME280;63998;52.488;13.428;2023-05-14T10:18:15;101236.31;;;22.41;29.83
75420;BME280;63998;52.488;13.428;2023-05-14T10:20:42;101241.28;;;22.27;30.08
75420;BME280;63998;52.488;13.428;2023-05-14T10:23:08;101235.06;;;22.05;30.25
75420;BME280;63998;52.488;13.428;2023-05-14T10:25:34;101235.41;;;21.96;30.29
75420;BME280;63998;52.488;13.428;2023-05-14T10:28:01;101238.13;;;21.69;30.01
75420;BME280;63998;52.488;13.428;2023-05-14T10:30:26;101234.31;;;21.76;30.16
75420;BME280;63998;52.488;13.428;2023-05-14T10:33:08;101219.19;;;22.05;29.52
75420;BME280;63998;52.488;13.428;2023-05-14T10:36:04;101212.28;;;22.01;29.86
75420;BME280;63998;52.488;13.428;2023-05-14T10:38:34;101208.25;;;22.14;30.67
75420;BME280;63998;52.488;13.428;2023-05-14T10:41:11;101203.72;;;22.17;30.56
75420;BME280;63998;52.488;13.428;2023-05-14T10:43:38;101206.66;;;22.10;30.53
75420;BME280;63998;52.488;13.428;2023-05-14T10:46:05;101209.47;;;22.05;30.89
75420;BME280;63998;52.488;13.428;2023-05-14T10:48:31;101208.72;;;22.02;31.67
75420;BME280;63998;52.488;13.428;2023-05-14T10:50:57;101207.22;;;21.95;31.04
75420;BME280;63998;52.488;13.428;2023-05-14T10:53:36;101204.13;;;22.07;30.57
75420;BME280;63998;52.488;13.428;2023-05-14T10:56:10;101202.56;;;22.01;30.65
75420;BME280;63998;52.488;13.428;2023-05-14T10:58:37;101205.31;;;22.00;31.41
75420;BME280;63998;52.488;13.428;2023-05-14T11:01:03;101202.41;;;22.06;32.35
75420;BME280;63998;52.488;13.428;2023-05-14T11:03:30;101203.22;;;22.08;32.21
75420;BME280;63998;52.488;13.428;2023-05-14T11:05:56;101203.22;;;22.08;32.66
75420;BME280;63998;52.488;13.428;2023-05-14T11:08:25;101200.31;;;21.91;31.33
75420;BME280;63998;52.488;13.428;2023-05-14T11:10:51;101196.84;;;21.88;32.59
75420;BME280;63998;52.488;13.428;2023-05-14T11:13:18;101204.22;;;21.80;32.14
75420;BME280;63998;52.488;13.428;2023-05-14T11:15:44;101193.97;;;21.71;31.75
75420;BME280;63998;52.488;13.428;2023-05-14T11:18:12;101203.03;;;21.64;31.37
75420;BME280;63998;52.488;13.428;2023-05-14T11:20:37;101191.03;;;21.56;31.85
75420;BME280;63998;52.488;13.428;2023-05-14T11:23:03;101195.06;;;21.41;31.57
75420;BME280;63998;52.488;13.428;2023-05-14T11:25:28;101182.00;;;21.38;31.25
75420;BME280;63998;52.488;13.428;2023-05-14T11:27:54;101193.25;;;21.43;32.15
75420;BME280;63998;52.488;13.428;2023-05-14T11:30:22;101184.06;;;21.53;32.44
75420;BME280;63998;52.488;13.428;2023-05-14T11:32:48;101189.16;;;21.59;31.93
75420;BME280;63998;52.488;13.428;2023-05-14T11:35:15;101186.97;;;21.70;32.24
75420;BME280;63998;52.488;13.428;2023-05-14T11:37:41;101174.44;;;21.75;31.57
75420;BME280;63998;52.488;13.428;2023-05-14T11:40:08;101175.94;;;21.82;32.07
75420;BME280;63998;52.488;13.428;2023-05-14T11:42:38;101174.84;;;21.88;32.48
75420;BME280;63998;52.488;13.428;2023-05-14T11:45:04;101166.66;;;21.94;32.82
75420;BME280;63998;52.488;13.428;2023-05-14T11:47:30;101166.81;;;21.90;32.62
75420;BME280;63998;52.488;13.428;2023-05-14T11:49:55;101167.69;;;21.90;32.97
75420;BME280;63998;52.488;13.428;2023-05-14T11:52:21;101160.06;;;21.82;33.03
75420;BME280;63998;52.488;13.428;2023-05-14T11:54:46;101160.41;;;21.73;32.18
75420;BME280;63998;52.488;13.428;2023-05-14T11:57:16;101154.59;;;21.64;31.52
75420;BME280;63998;52.488;13.428;2023-05-14T11:59:42;101153.59;;;21.66;32.86
75420;BME280;63998;52.488;13.428;2023-05-14T12:02:12;101143.03;;;21.66;32.51
75420;BME280;63998;52.488;13.428;2023-05-14T12:04:39;101140.28;;;21.69;32.53
75420;BME280;63998;52.488;13.428;2023-05-14T12:07:12;101142.56;;;21.78;32.68
75420;BME280;63998;52.488;13.428;2023-05-14T12:09:41;101136.81;;;21.91;33.16
75420;BME280;63998;52.488;13.428;2023-05-14T12:12:08;101133.59;;;22.06;32.63
75420;BME280;63998;52.488;13.428;2023-05-14T12:14:37;101132.56;;;22.32;33.04
75420;BME280;63998;52.488;13.428;2023-05-14T12:17:02;101138.94;;;22.49;32.96
75420;BME280;63998;52.488;13.428;2023-05-14T12:19:29;101130.59;;;22.58;32.06
75420;BME280;63998;52.488;13.428;2023-05-14T12:21:54;101124.66;;;22.74;31.83
75420;BME280;63998;52.488;13.428;2023-05-14T12:24:20;101125.63;;;22.93;31.83
75420;BME280;63998;52.488;13.428;2023-05-14T12:26:49;101121.63;;;23.03;31.93
75420;BME280;63998;52.488;13.428;2023-05-14T12:29:15;101120.03;;;23.19;31.09
75420;BME280;63998;52.488;13.428;2023-05-14T12:31:50;101114.75;;;23.19;29.97
75420;BME280;63998;52.488;13.428;2023-05-14T12:34:15;101112.34;;;23.13;30.78
75420;BME280;63998;52.488;13.428;2023-05-14T12:36:41;101109.91;;;23.09;30.38
75420;BME280;63998;52.488;13.428;2023-05-14T12:39:07;101104.88;;;23.03;30.90
75420;BME280;63998;52.488;13.428;2023-05-14T12:41:33;101100.72;;;22.97;31.12